Monday, June 25, 2018, 4:01 AM GMT
Back to Local

CYBG, Bagotville, Que.

Location: , , Canada Lat: 48.333
Local Time: 4:01 AM GMT ( 4:01 GMT) Lon: -71
Time Zone: GMT Elev: 521 ft

Show me the last for .
Show Coded

Time T Td Feel RH Dir Speed Gust Alt SLP Vis Weather Sky Remarks
2018-06-25 03:00 59 43 - 54 280° 6 - 29.89 29.90 25 BKN100 OVC240 None
2018-06-25 02:00 59 41 - 51 270° 7 - 29.89 29.90 25 SCT040 BKN240 None
2018-06-25 01:00 61 41 - 48 260° 8 - 29.87 29.88 25 FEW040 BKN240 None
2018-06-25 00:00 64 45 - 48 260° 7 - 29.86 29.87 25 FEW040 BKN240 None
2018-06-24 23:00 68 43 - 40 270° 14 - 29.86 29.87 25 FEW040 BKN240 None
2018-06-24 22:00 70 43 - 37 270° 13 - 29.85 29.85 25 FEW040 BKN240 None
2018-06-24 21:00 70 46 - 43 270° 10 - 29.84 29.85 25 FEW040 SCT150 BKN240 None
2018-06-24 20:00 70 46 - 43 270° 10 - 29.84 29.85 25 FEW040 SCT150 BKN240 None
2018-06-24 19:00 68 48 - 49 290° 10 - 29.85 29.85 25 FEW040 FEW150 BKN240 None
2018-06-24 18:00 64 52 - 63 260° 7 - 29.86 29.86 25 FEW025 SCT150 SCT240 None
2018-06-24 17:00 61 54 - 77 230° 7 - 29.87 29.88 25 BKN025 BKN150 None
2018-06-24 16:00 59 54 - 82 270° 6 - 29.87 29.88 25 FEW010 BKN020 OVC040 None
2018-06-24 15:00 57 52 - 82 270° 8 - 29.87 29.87 20 SCT010 OVC040 None
2018-06-24 14:00 55 52 - 87 290° 9 - 29.85 29.85 15 -SHRA SCT010 OVC035 None
2018-06-24 13:00 54 52 - 93 260° 9 - 29.85 29.85 15 -SHRA BKN010 OVC030 None
2018-06-24 12:27 54 50 - 87 270° 10 - 29.84 29.84 15 -SHRA BKN010 OVC030 None
2018-06-24 12:00 54 52 - 93 270° 9 - 29.83 29.83 25 SCT008 OVC035 None
2018-06-24 11:00 54 50 - 87 260° 8 - 29.81 29.81 25 -SHRA FEW008 OVC033 None
2018-06-24 10:14 54 50 - 87 270° 12 - 29.79 29.80 25 -SHRA FEW008 BKN035 OVC075 None
2018-06-24 10:00 55 48 - 76 270° 14 - 29.79 29.79 25 -SHRA FEW035 OVC075 None
2018-06-24 09:00 57 46 - 67 270° 10 - 29.77 29.78 25 FEW040 OVC100 None
2018-06-24 08:00 59 45 - 58 260° 12 - 29.75 29.75 25 FEW040 OVC120 None
2018-06-24 07:00 59 43 - 54 260° 12 - 29.75 29.75 25 FEW038 BKN120 OVC210 None
2018-06-24 06:00 61 43 - 51 260° 16 - 29.74 29.74 25 SCT080 OVC200 None
2018-06-24 05:00 63 54 - 72 290° 12 - 29.74 29.74 25 SCT075 OVC220 None

Support USWX by starting your Amazon purchase here.